createdAt,value
2017-08-02T00:01:51.455Z,11.90
2017-08-02T00:04:18.981Z,12.50
2017-08-02T00:06:46.602Z,13.33
2017-08-02T00:09:14.093Z,10.97
2017-08-02T00:11:41.608Z,10.77
2017-08-02T00:14:09.349Z,11.80
2017-08-02T00:16:36.936Z,11.10
2017-08-02T00:19:05.446Z,10.53
2017-08-02T00:21:32.989Z,12.27
2017-08-02T00:24:00.480Z,12.47
2017-08-02T00:26:27.999Z,8.90
2017-08-02T00:28:55.541Z,12.13
2017-08-02T00:31:23.087Z,10.47
2017-08-02T00:33:50.583Z,11.57
2017-08-02T00:36:18.864Z,11.03
2017-08-02T00:38:46.359Z,11.50
2017-08-02T00:41:13.844Z,10.53
2017-08-02T00:43:41.402Z,11.63
2017-08-02T00:46:08.924Z,10.33
2017-08-02T00:48:36.497Z,10.27
2017-08-02T00:51:04.036Z,12.10
2017-08-02T00:53:31.614Z,9.87
2017-08-02T00:55:59.142Z,12.77
2017-08-02T00:58:26.644Z,14.53
2017-08-02T01:00:54.981Z,13.60
2017-08-02T01:03:22.512Z,15.13
2017-08-02T01:05:50.046Z,14.10
2017-08-02T01:08:17.567Z,15.73
2017-08-02T01:10:45.149Z,16.23
2017-08-02T01:13:13.458Z,16.33
2017-08-02T01:15:40.998Z,15.37
2017-08-02T01:18:08.492Z,15.20
2017-08-02T01:20:36.009Z,17.20
2017-08-02T01:23:03.639Z,16.53
2017-08-02T01:25:31.151Z,20.00
2017-08-02T01:27:58.650Z,17.50
2017-08-02T01:30:26.253Z,17.03
2017-08-02T01:32:53.806Z,18.17
2017-08-02T01:35:21.365Z,17.17
2017-08-02T01:37:49.016Z,18.10
2017-08-02T01:40:16.583Z,14.80
2017-08-02T01:42:44.129Z,14.77
2017-08-02T01:45:12.541Z,15.30
2017-08-02T01:47:40.038Z,16.00
2017-08-02T01:50:07.532Z,15.47
2017-08-02T01:52:35.042Z,20.33
2017-08-02T01:55:03.334Z,18.70
2017-08-02T01:57:30.883Z,17.97
2017-08-02T01:59:58.393Z,21.03
2017-08-02T02:02:26.686Z,21.20
2017-08-02T02:04:54.254Z,20.23
2017-08-02T02:07:21.802Z,19.40
2017-08-02T02:09:49.345Z,19.60
2017-08-02T02:12:16.885Z,18.00
2017-08-02T02:14:44.430Z,18.33
2017-08-02T02:17:11.946Z,16.83
2017-08-02T02:19:40.210Z,17.20
2017-08-02T02:22:08.554Z,18.73
2017-08-02T02:24:36.840Z,16.50
2017-08-02T02:27:04.660Z,20.30
2017-08-02T02:29:32.248Z,21.57
2017-08-02T02:31:59.753Z,17.80
2017-08-02T02:34:27.270Z,19.37
2017-08-02T02:36:54.789Z,24.63
2017-08-02T02:39:22.319Z,26.00
2017-08-02T02:41:49.874Z,28.33
2017-08-02T02:44:17.435Z,29.30
2017-08-02T02:46:44.926Z,28.50
2017-08-02T02:49:13.234Z,27.60
2017-08-02T02:51:40.785Z,28.20
2017-08-02T02:54:08.364Z,28.50
2017-08-02T02:56:36.647Z,28.53
2017-08-02T02:59:04.170Z,29.07
2017-08-02T03:01:31.862Z,31.30
2017-08-02T03:03:59.369Z,29.97
2017-08-02T03:06:26.869Z,30.87
2017-08-02T03:08:54.452Z,31.17
2017-08-02T03:11:21.953Z,31.87
2017-08-02T03:13:49.445Z,30.90
2017-08-02T03:16:16.984Z,33.77
2017-08-02T03:18:44.469Z,31.97
2017-08-02T03:21:12.068Z,32.60
2017-08-02T03:23:39.590Z,34.07
2017-08-02T03:26:07.135Z,34.57
2017-08-02T03:28:34.651Z,33.20
2017-08-02T03:31:02.253Z,33.50
2017-08-02T03:33:29.749Z,33.83
2017-08-02T03:35:57.342Z,34.53
2017-08-02T03:38:24.844Z,33.93
2017-08-02T03:40:52.424Z,35.20
2017-08-02T03:43:19.938Z,37.50
2017-08-02T03:45:48.188Z,34.67
2017-08-02T03:48:15.713Z,35.83
2017-08-02T03:50:43.208Z,34.50
2017-08-02T03:53:10.873Z,36.40
2017-08-02T03:55:38.605Z,35.53
2017-08-02T03:58:06.126Z,35.37
2017-08-02T04:00:34.413Z,33.90
2017-08-02T04:03:01.922Z,34.83
2017-08-02T04:05:29.522Z,34.47
2017-08-02T04:07:57.044Z,35.07
2017-08-02T04:10:24.541Z,33.57
2017-08-02T04:12:52.057Z,35.17
2017-08-02T04:15:19.612Z,36.80
2017-08-02T04:17:47.161Z,36.50
2017-08-02T04:20:14.674Z,38.43
2017-08-02T04:22:42.254Z,36.23
2017-08-02T04:25:09.769Z,33.87
2017-08-02T04:27:37.303Z,37.63
2017-08-02T04:30:05.601Z,37.27
2017-08-02T04:32:33.181Z,34.83
2017-08-02T04:35:00.787Z,34.77
2017-08-02T04:37:28.325Z,35.90
2017-08-02T04:39:55.841Z,37.63
2017-08-02T04:42:24.132Z,32.97
2017-08-02T04:44:51.644Z,31.87
2017-08-02T04:47:19.909Z,34.80
2017-08-02T04:49:48.301Z,33.33
2017-08-02T04:52:15.801Z,34.27
2017-08-02T04:54:43.490Z,32.60
2017-08-02T04:57:11.028Z,32.33
2017-08-02T04:59:38.593Z,32.57
2017-08-02T05:02:06.153Z,30.60
2017-08-02T05:04:33.937Z,33.40
2017-08-02T05:07:01.478Z,33.00
2017-08-02T05:09:29.001Z,31.53
2017-08-02T05:11:56.504Z,28.90
2017-08-02T05:14:23.996Z,31.90
2017-08-02T05:16:51.529Z,29.43
2017-08-02T05:19:19.020Z,28.33
2017-08-02T05:21:46.506Z,29.67
2017-08-02T05:24:14.014Z,28.63
2017-08-02T05:26:41.569Z,29.40
2017-08-02T05:29:09.861Z,28.20
2017-08-02T05:31:37.378Z,28.40
2017-08-02T05:34:05.667Z,29.63
2017-08-02T05:36:33.174Z,27.00
2017-08-02T05:39:01.446Z,29.67
2017-08-02T05:41:29.728Z,28.40
2017-08-02T05:43:57.277Z,30.30
2017-08-02T05:46:24.793Z,26.90
2017-08-02T05:48:53.184Z,24.90
2017-08-02T05:51:20.725Z,24.43
2017-08-02T05:53:48.236Z,28.07
2017-08-02T05:56:16.528Z,22.70
2017-08-02T05:58:44.017Z,23.37
2017-08-02T06:01:11.530Z,24.23
2017-08-02T06:03:39.145Z,23.77
2017-08-02T06:06:06.742Z,23.50
2017-08-02T06:08:34.252Z,24.30
2017-08-02T06:11:01.792Z,23.73
2017-08-02T06:13:29.340Z,24.13
2017-08-02T06:15:56.881Z,22.83
2017-08-02T06:18:24.372Z,24.13
2017-08-02T06:20:51.884Z,22.13
2017-08-02T06:23:19.373Z,21.87
2017-08-02T06:25:46.905Z,23.43
2017-08-02T06:28:14.399Z,20.50
2017-08-02T06:30:42.653Z,22.77
2017-08-02T06:33:10.933Z,22.77
2017-08-02T06:35:38.511Z,22.33
2017-08-02T06:38:06.099Z,21.27
2017-08-02T06:40:34.874Z,19.17
2017-08-02T06:43:03.173Z,19.33
2017-08-02T06:45:30.717Z,18.70
2017-08-02T06:47:58.221Z,18.47
2017-08-02T06:50:25.737Z,18.43
2017-08-02T06:52:53.344Z,17.03
2017-08-02T06:55:20.848Z,15.40
2017-08-02T06:57:49.150Z,16.83
2017-08-02T07:00:16.692Z,14.03
2017-08-02T07:02:44.176Z,14.63
2017-08-02T07:05:11.724Z,13.13
2017-08-02T07:07:39.246Z,11.20
2017-08-02T07:10:06.836Z,11.50
2017-08-02T07:12:35.259Z,11.43
2017-08-02T07:15:02.786Z,11.50
2017-08-02T07:17:30.329Z,10.63
2017-08-02T07:19:57.853Z,10.67
2017-08-02T07:22:26.115Z,9.70
2017-08-02T07:24:53.683Z,9.80
2017-08-02T07:27:21.322Z,10.10
2017-08-02T07:29:48.828Z,10.03
2017-08-02T07:32:17.089Z,10.20
2017-08-02T07:34:44.609Z,10.20
2017-08-02T07:37:12.115Z,10.13
2017-08-02T07:39:40.141Z,9.77
2017-08-02T07:42:07.807Z,9.93
2017-08-02T07:44:35.463Z,10.60
2017-08-02T07:47:03.004Z,10.50
2017-08-02T07:49:30.557Z,10.80
2017-08-02T07:51:58.261Z,11.37
2017-08-02T07:54:26.569Z,10.83
2017-08-02T07:56:54.084Z,9.43
2017-08-02T07:59:22.357Z,11.40
2017-08-02T08:01:49.860Z,11.10
2017-08-02T08:04:17.350Z,10.60
2017-08-02T08:06:44.857Z,12.13
2017-08-02T08:09:13.149Z,12.07
2017-08-02T08:11:40.717Z,11.20
2017-08-02T08:14:08.488Z,10.63
2017-08-02T08:16:36.342Z,10.40
2017-08-02T08:19:03.860Z,10.03
2017-08-02T08:21:31.477Z,11.77
2017-08-02T08:23:59.029Z,11.40
2017-08-02T08:26:26.529Z,12.60
2017-08-02T08:28:54.846Z,10.70
2017-08-02T08:31:22.353Z,12.00
2017-08-02T08:33:50.625Z,11.93
2017-08-02T08:36:18.287Z,12.50
2017-08-02T08:38:45.825Z,12.87
2017-08-02T08:41:13.376Z,10.83
2017-08-02T08:43:40.896Z,11.63
2017-08-02T08:46:08.495Z,11.40
2017-08-02T08:48:36.127Z,10.30
2017-08-02T08:51:03.638Z,10.83
2017-08-02T08:53:31.198Z,10.40
2017-08-02T08:55:58.685Z,10.30
2017-08-02T08:58:26.265Z,9.90
2017-08-02T09:00:54.605Z,9.03
2017-08-02T09:03:22.185Z,8.53
2017-08-02T09:05:49.732Z,9.67
2017-08-02T09:08:17.277Z,9.73
2017-08-02T09:10:44.821Z,8.93
2017-08-02T09:13:12.325Z,7.00
2017-08-02T09:15:39.894Z,7.67
2017-08-02T09:18:07.498Z,6.50
2017-08-02T09:20:35.120Z,7.10
2017-08-02T09:23:02.645Z,5.93
2017-08-02T09:25:30.237Z,5.70
2017-08-02T09:27:57.760Z,6.53
2017-08-02T09:30:25.447Z,8.10
2017-08-02T09:32:53.765Z,7.40
2017-08-02T09:35:21.390Z,7.10
2017-08-02T09:37:48.886Z,7.07
2017-08-02T09:40:16.388Z,6.33
2017-08-02T09:42:43.885Z,6.90
2017-08-02T09:45:12.249Z,8.23
2017-08-02T09:47:40.614Z,6.10
2017-08-02T09:50:09.329Z,6.47
2017-08-02T09:52:49.662Z,7.40
2017-08-02T09:55:17.205Z,6.13
2017-08-02T09:57:44.745Z,6.60
2017-08-02T10:00:12.377Z,7.00
2017-08-02T10:02:40.109Z,7.20
2017-08-02T10:05:08.229Z,7.73
2017-08-02T10:07:37.148Z,7.90
2017-08-02T10:10:06.071Z,7.53
2017-08-02T10:12:33.701Z,10.20
2017-08-02T10:15:01.269Z,8.97
2017-08-02T10:17:28.884Z,7.97
2017-08-02T10:19:56.415Z,9.80
2017-08-02T10:22:23.983Z,9.80
2017-08-02T10:24:51.521Z,8.97
2017-08-02T10:27:19.013Z,8.80
2017-08-02T10:29:46.517Z,8.43
2017-08-02T10:32:14.000Z,9.57
2017-08-02T10:34:41.521Z,9.07
2017-08-02T10:37:09.260Z,9.40
2017-08-02T10:39:37.430Z,9.33
2017-08-02T10:42:04.958Z,8.57
2017-08-02T10:44:32.445Z,8.70
2017-08-02T10:47:00.024Z,8.40
2017-08-02T10:49:27.591Z,8.87
2017-08-02T10:51:55.147Z,7.47
2017-08-02T10:54:22.653Z,7.00
2017-08-02T10:56:50.210Z,6.13
2017-08-02T10:59:17.698Z,6.67
2017-08-02T11:01:45.215Z,5.90
2017-08-02T11:04:12.700Z,6.13
2017-08-02T11:06:41.004Z,6.87
2017-08-02T11:09:08.593Z,6.97
2017-08-02T11:11:36.277Z,5.23
2017-08-02T11:14:03.848Z,4.50
2017-08-02T11:16:31.381Z,4.33
2017-08-02T11:18:58.864Z,4.70
2017-08-02T11:21:26.489Z,4.80
2017-08-02T11:23:54.134Z,5.80
2017-08-02T11:26:21.644Z,5.60
2017-08-02T11:28:49.400Z,5.20
2017-08-02T11:31:16.893Z,3.90
2017-08-02T11:33:44.405Z,4.37
2017-08-02T11:36:11.894Z,4.43
2017-08-02T11:38:49.349Z,4.20
2017-08-02T11:41:16.853Z,5.60
2017-08-02T11:43:44.417Z,4.13
2017-08-02T11:46:11.905Z,4.20
2017-08-02T11:48:40.299Z,3.43
2017-08-02T11:51:08.528Z,5.20
2017-08-02T11:53:36.863Z,3.80
2017-08-02T11:56:04.583Z,4.30
2017-08-02T11:58:32.208Z,4.97
2017-08-02T12:00:59.757Z,4.27
2017-08-02T12:03:27.441Z,3.97
2017-08-02T12:05:55.091Z,4.20
2017-08-02T12:08:22.601Z,4.83
2017-08-02T12:10:50.113Z,4.53
2017-08-02T12:13:18.401Z,4.30
2017-08-02T12:15:45.944Z,5.20
2017-08-02T12:18:13.489Z,4.27
2017-08-02T12:20:41.188Z,4.90
2017-08-02T12:23:09.049Z,5.07
2017-08-02T12:25:38.055Z,4.00
2017-08-02T12:28:06.900Z,4.77
2017-08-02T12:30:35.481Z,4.03
2017-08-02T12:33:03.061Z,3.80
2017-08-02T12:35:30.598Z,3.33
2017-08-02T12:37:58.169Z,3.73
2017-08-02T12:40:25.712Z,3.00
2017-08-02T12:42:53.246Z,3.60
2017-08-02T12:45:20.769Z,3.10
2017-08-02T12:47:48.315Z,3.10
2017-08-02T12:50:15.812Z,3.57
2017-08-02T12:52:43.322Z,3.07
2017-08-02T12:55:11.384Z,3.50
2017-08-02T12:57:39.030Z,3.50
2017-08-02T13:00:07.090Z,2.77
2017-08-02T13:02:34.669Z,3.37
2017-08-02T13:05:02.154Z,2.93
2017-08-02T13:07:29.661Z,3.30
2017-08-02T13:09:57.960Z,3.23
2017-08-02T13:12:25.492Z,3.50
2017-08-02T13:14:53.046Z,3.10
2017-08-02T13:17:20.584Z,3.27
2017-08-02T13:19:48.129Z,2.90
2017-08-02T13:22:15.693Z,3.37
2017-08-02T13:24:43.424Z,2.80
2017-08-02T13:27:20.833Z,3.07
2017-08-02T13:29:48.440Z,3.50
2017-08-02T13:32:16.094Z,2.93
2017-08-02T13:34:43.628Z,3.07
2017-08-02T13:37:11.172Z,3.00
2017-08-02T13:39:38.712Z,3.40
2017-08-02T13:42:06.298Z,3.00
2017-08-02T13:44:34.301Z,3.23
2017-08-02T13:47:01.816Z,2.70
2017-08-02T13:49:29.321Z,3.17
2017-08-02T13:51:56.813Z,2.97
2017-08-02T13:54:24.415Z,3.67
2017-08-02T13:56:51.964Z,2.87
2017-08-02T13:59:19.449Z,2.80
2017-08-02T14:01:47.750Z,2.80
2017-08-02T14:04:15.293Z,2.57
2017-08-02T14:06:42.824Z,2.83
2017-08-02T14:09:10.394Z,2.40
2017-08-02T14:11:38.048Z,2.47
2017-08-02T14:14:05.575Z,2.73
2017-08-02T14:16:33.107Z,2.97
2017-08-02T14:19:00.662Z,3.70
2017-08-02T14:21:28.161Z,2.87
2017-08-02T14:23:55.812Z,2.47
2017-08-02T14:26:24.291Z,2.73
2017-08-02T14:28:51.821Z,2.60
2017-08-02T14:31:19.336Z,2.50
2017-08-02T14:33:46.868Z,3.50
2017-08-02T14:36:14.399Z,3.03
2017-08-02T14:38:42.148Z,3.20
2017-08-02T14:41:09.815Z,2.77
2017-08-02T14:43:37.332Z,2.90
2017-08-02T14:46:05.022Z,2.97
2017-08-02T14:48:32.597Z,2.90
2017-08-02T14:51:00.877Z,3.17
2017-08-02T14:53:28.379Z,3.00
2017-08-02T14:55:56.026Z,2.90
2017-08-02T14:58:24.500Z,3.00
2017-08-02T15:00:52.762Z,4.03
2017-08-02T15:03:21.034Z,3.87
2017-08-02T15:05:49.332Z,3.50
2017-08-02T15:08:16.858Z,4.17
2017-08-02T15:10:44.345Z,3.33
2017-08-02T15:13:11.959Z,3.90
2017-08-02T15:15:40.309Z,3.77
2017-08-02T15:18:07.849Z,3.37
2017-08-02T15:20:35.621Z,3.73
2017-08-02T15:23:03.353Z,3.57
2017-08-02T15:25:30.893Z,3.47
2017-08-02T15:27:58.373Z,3.23
2017-08-02T15:30:25.869Z,3.20
2017-08-02T15:32:53.437Z,4.03
2017-08-02T15:35:20.978Z,4.27
2017-08-02T15:37:48.612Z,3.77
2017-08-02T15:40:16.153Z,3.70
2017-08-02T15:42:43.727Z,4.30
2017-08-02T15:45:11.241Z,3.90
2017-08-02T15:47:38.730Z,4.50
2017-08-02T15:50:16.292Z,4.20
2017-08-02T15:52:43.778Z,4.50
2017-08-02T15:55:12.073Z,4.63
2017-08-02T15:57:39.649Z,4.20
2017-08-02T16:00:07.200Z,4.30
2017-08-02T16:02:35.121Z,4.30
2017-08-02T16:05:02.641Z,4.30
2017-08-02T16:07:30.925Z,4.20
2017-08-02T16:09:58.421Z,4.50
2017-08-02T16:12:25.937Z,3.83
2017-08-02T16:14:53.449Z,4.40
2017-08-02T16:17:21.097Z,4.67
2017-08-02T16:19:48.641Z,5.00
2017-08-02T16:22:16.206Z,4.87
2017-08-02T16:24:43.725Z,4.87
2017-08-02T16:27:11.254Z,5.10
2017-08-02T16:29:39.757Z,4.90
2017-08-02T16:32:07.928Z,5.33
2017-08-02T16:34:36.030Z,5.33
2017-08-02T16:37:03.599Z,4.47
2017-08-02T16:39:31.139Z,5.50
2017-08-02T16:41:59.221Z,4.93
2017-08-02T16:44:36.916Z,4.87
2017-08-02T16:47:06.260Z,5.30
2017-08-02T16:49:35.519Z,4.60
2017-08-02T16:52:03.093Z,4.37
2017-08-02T16:54:30.635Z,4.43
2017-08-02T16:56:58.525Z,4.53
2017-08-02T16:59:26.781Z,4.83
2017-08-02T17:01:54.320Z,4.83
2017-08-02T17:04:22.013Z,5.33
2017-08-02T17:06:50.323Z,4.80
2017-08-02T17:09:17.944Z,5.00
2017-08-02T17:11:45.497Z,5.80
2017-08-02T17:14:13.038Z,5.47
2017-08-02T17:16:40.572Z,5.13
2017-08-02T17:19:08.311Z,5.53
2017-08-02T17:21:36.710Z,4.87
2017-08-02T17:24:04.242Z,5.50
2017-08-02T17:26:31.776Z,4.47
2017-08-02T17:28:59.260Z,5.50
2017-08-02T17:31:37.132Z,5.47
2017-08-02T17:34:05.228Z,5.50
2017-08-02T17:36:33.012Z,5.23
2017-08-02T17:39:00.493Z,6.63
2017-08-02T17:41:28.005Z,5.90
2017-08-02T17:43:55.516Z,5.67
2017-08-02T17:46:23.025Z,5.27
2017-08-02T17:48:50.530Z,5.20
2017-08-02T17:51:18.073Z,4.83
2017-08-02T17:53:45.615Z,6.07
2017-08-02T17:56:13.092Z,6.43
2017-08-02T17:58:40.630Z,6.03
2017-08-02T18:01:09.004Z,6.53
2017-08-02T18:03:36.537Z,6.83
2017-08-02T18:06:04.061Z,5.97
2017-08-02T18:08:31.597Z,5.77
2017-08-02T18:10:59.149Z,5.63
2017-08-02T18:13:26.649Z,5.43
2017-08-02T18:15:54.923Z,6.77
2017-08-02T18:18:23.209Z,7.10
2017-08-02T18:20:50.713Z,6.13
2017-08-02T18:23:18.206Z,5.70
2017-08-02T18:25:45.745Z,5.73
2017-08-02T18:28:13.281Z,5.53
2017-08-02T18:30:40.796Z,4.40
2017-08-02T18:33:09.084Z,5.40
2017-08-02T18:35:36.648Z,4.73
2017-08-02T18:38:04.311Z,4.70
2017-08-02T18:40:31.950Z,4.30
2017-08-02T18:42:59.429Z,5.03
2017-08-02T18:45:27.097Z,6.13
2017-08-02T18:47:54.693Z,6.30
2017-08-02T18:50:22.385Z,4.83
2017-08-02T18:52:49.910Z,5.80
2017-08-02T18:55:17.421Z,5.10
2017-08-02T18:57:45.030Z,4.57
2017-08-02T19:00:13.451Z,5.90
2017-08-02T19:02:40.965Z,5.10
2017-08-02T19:05:08.469Z,5.57
2017-08-02T19:07:35.969Z,5.73
2017-08-02T19:10:03.497Z,5.63
2017-08-02T19:12:31.046Z,5.93
2017-08-02T19:14:58.529Z,5.40
2017-08-02T19:17:26.132Z,5.90
2017-08-02T19:19:53.878Z,6.03
2017-08-02T19:22:21.412Z,6.50
2017-08-02T19:24:48.973Z,6.67
2017-08-02T19:27:16.464Z,6.80
2017-08-02T19:29:44.066Z,6.20
2017-08-02T19:32:11.675Z,6.30
2017-08-02T19:34:39.991Z,6.33
2017-08-02T19:37:07.604Z,6.53
2017-08-02T19:39:35.113Z,6.80
2017-08-02T19:42:02.604Z,8.50
2017-08-02T19:44:30.104Z,7.50
2017-08-02T19:46:58.401Z,7.83
2017-08-02T19:49:26.057Z,7.57
2017-08-02T19:51:53.587Z,8.30
2017-08-02T19:54:21.365Z,7.60
2017-08-02T19:56:48.885Z,7.23
2017-08-02T19:59:16.419Z,8.00
2017-08-02T20:01:43.973Z,9.00
2017-08-02T20:04:11.487Z,9.80
2017-08-02T20:06:39.060Z,10.43
2017-08-02T20:09:06.628Z,11.37
2017-08-02T20:11:34.146Z,9.13
2017-08-02T20:14:01.692Z,9.20
2017-08-02T20:16:29.265Z,8.80
2017-08-02T20:18:56.903Z,10.60
2017-08-02T20:21:25.383Z,10.80
2017-08-02T20:23:53.726Z,11.70
2017-08-02T20:26:21.690Z,12.40
2017-08-02T20:28:49.234Z,15.33
2017-08-02T20:31:16.753Z,13.80
2017-08-02T20:33:44.296Z,14.40
2017-08-02T20:36:11.948Z,16.17
2017-08-02T20:38:39.586Z,14.90
2017-08-02T20:41:07.081Z,18.03
2017-08-02T20:43:34.677Z,18.03
2017-08-02T20:46:02.170Z,16.63
2017-08-02T20:48:29.673Z,16.93
2017-08-02T20:50:57.389Z,16.47
2017-08-02T20:53:34.833Z,18.90
2017-08-02T20:56:02.322Z,17.40
2017-08-02T20:58:29.868Z,17.00
2017-08-02T21:00:57.374Z,17.10
2017-08-02T21:03:25.666Z,19.30
2017-08-02T21:05:53.355Z,21.77
2017-08-02T21:08:20.890Z,18.40
2017-08-02T21:10:48.413Z,17.13
2017-08-02T21:13:15.951Z,16.10
2017-08-02T21:15:43.523Z,18.10
2017-08-02T21:18:11.113Z,19.03
2017-08-02T21:20:38.641Z,18.60
2017-08-02T21:23:06.229Z,19.57
2017-08-02T21:25:33.735Z,19.40
2017-08-02T21:28:01.316Z,18.77
2017-08-02T21:30:28.844Z,20.20
2017-08-02T21:32:57.112Z,17.30
2017-08-02T21:35:24.649Z,16.97
2017-08-02T21:37:52.926Z,18.17
2017-08-02T21:40:20.486Z,17.63
2017-08-02T21:42:47.976Z,19.20
2017-08-02T21:45:15.469Z,19.67
2017-08-02T21:47:43.001Z,21.73
2017-08-02T21:50:10.506Z,22.70
2017-08-02T21:52:38.094Z,22.77
2017-08-02T21:55:05.585Z,20.27
2017-08-02T21:57:33.177Z,19.50
2017-08-02T22:00:00.687Z,19.13
2017-08-02T22:02:28.264Z,20.10
2017-08-02T22:04:55.850Z,18.80
2017-08-02T22:07:24.197Z,20.10
2017-08-02T22:09:51.768Z,20.47
2017-08-02T22:12:19.405Z,18.97
2017-08-02T22:14:46.946Z,20.97
2017-08-02T22:17:14.585Z,18.03
2017-08-02T22:19:42.072Z,19.30
2017-08-02T22:22:09.577Z,18.10
2017-08-02T22:24:37.077Z,18.87
2017-08-02T22:27:04.615Z,18.67
2017-08-02T22:29:32.197Z,19.13
2017-08-02T22:31:59.745Z,18.87
2017-08-02T22:34:27.289Z,18.47
2017-08-02T22:36:54.790Z,16.40
2017-08-02T22:39:22.304Z,15.30
2017-08-02T22:41:49.805Z,15.50
2017-08-02T22:44:18.104Z,14.10
2017-08-02T22:46:45.649Z,17.63
2017-08-02T22:49:13.169Z,15.03
2017-08-02T22:51:40.750Z,15.97
2017-08-02T22:54:08.270Z,15.20
2017-08-02T22:56:35.901Z,15.63
2017-08-02T22:59:03.409Z,15.57
2017-08-02T23:01:30.989Z,16.73
2017-08-02T23:03:58.501Z,16.37
2017-08-02T23:06:26.030Z,14.20
2017-08-02T23:08:53.547Z,14.17
2017-08-02T23:11:21.105Z,16.23
2017-08-02T23:13:48.657Z,17.10
2017-08-02T23:16:16.205Z,18.10
2017-08-02T23:18:43.737Z,19.77
2017-08-02T23:21:11.285Z,17.20
2017-08-02T23:23:38.785Z,19.97
2017-08-02T23:26:06.373Z,16.30
2017-08-02T23:28:33.865Z,21.37
2017-08-02T23:31:01.372Z,18.93
2017-08-02T23:33:28.926Z,17.97
2017-08-02T23:35:56.675Z,21.03
2017-08-02T23:38:24.193Z,21.77
2017-08-02T23:40:51.720Z,21.60
2017-08-02T23:43:19.287Z,18.50
2017-08-02T23:45:46.859Z,21.70
2017-08-02T23:48:14.369Z,21.60
2017-08-02T23:50:41.852Z,21.63
2017-08-02T23:53:09.357Z,21.77
2017-08-02T23:55:36.905Z,23.67
2017-08-02T23:58:04.445Z,21.67
